Huddy, KY (41535)

7:12 PM EDT on August 24, 2016 (GMT -0400)
Turkey Creek, KY | | Change Station

Elev 735 ft 37.67 °N, 82.31 °W | Updated 8 seconds ago

Scattered Clouds
Scattered Clouds
79.5 °F
Feels Like 84 °F
N
0.0
Wind Variable Wind from East
Gusts 0.0 mph

Today
High -- | Low -- °F
--% Chance of Precip.
Yesterday
High -- | Low -- °F
Precip. -- in
Pressure 30.17 in
Visibility 10.0 miles
Clouds Scattered Clouds 4200 ft
Scattered Clouds 6000 ft
Heat Index 84 °F
Dew Point 75 °F
Humidity 87%
Rainfall 0.00 in
Snow Depth Not available.
6:52 AM 8:08 PM
Waning Gibbous, 52% visible
METAR KSJS 242255Z AUTO 00000KT 10SM SCT042 SCT060 29/22 A3017 RMK AO2 T02870219
Pressure 30.17 in
Visibility 10.0 miles
Clouds Scattered Clouds 4200 ft
Scattered Clouds 6000 ft
Heat Index 84 °F
Dew Point 75 °F
Humidity 87%
Rainfall 0.00 in
Snow Depth Not available.
6:52 AM 8:08 PM
Waning Gibbous, 52% visible
METAR KSJS 242255Z AUTO 00000KT 10SM SCT042 SCT060 29/22 A3017 RMK AO2 T02870219

10-Day Weather Forecast

Almanac

Astronomy

Aug. 24, 2016 Rise Set
Actual Time
Civil Twilight
Nautical Twilight
Astronomical Twilight
Moon
Length of Visible Light
Length of Day
Tomorrow will be .
, % of the Moon is Illuminated

Today's Extremes

State Highs State Lows

Community

WunderPhotos

Upload Photos

1,934,731 photos uploaded!

WunderBlog® & News

Nearby

Air Quality

  Air Quality AQ Index Pollutant
Not available.

Snow Depth

Station Depth Elevation

Earthquake Activity

City Distance Mag. Time & Date
Minimum magnitude displayed is 2.5.

Coastal Water Temperatures

Place Temperature

Stations

Nearby Weather Stations

Station Location Temp. Windchill Dew Point Humidity Wind Precip. Elev Updated Type
                   

Watches & Warnings

There are currently no watches in effect.